Extreme high temperature From: 23-07-2018 05:00 Until: 24-07-2018 01:00 warning for: Extreme high temperature Level: Yellow info button
suomi:
Hellevaroitus: Lähivuorokauden aikana on odotettavissa tukalaa hellettä.

svenska:
Varning för värmebölja: Under det närmaste dygnet är den svåra hettan att vänta.

english:
Heat wave warning: Warm weather is expected during the coming 24 hours. 


Thunder radar more information blitzortung!


Löydät sääaseman tiedot myös:

European Weather Network

Finland Weather Exchange

Weather Underground

AWEKAS



Weather Underground säähistoriasivu

Päivittäin yhteenveto Heinäkuu 17, 2017 Yksiköt:  Englantilaiset    Metriset   Molemmat
« Edellinen Päivä
Seuraava Päivä »
Päivittäin Viikoittain Kuukausittain Vuosittain Mukautettu
  Korkea: Matala: Keskiarvo:
Lämpötila: TemperatureC °F 11.9 °F 15.3 °F
Kastepiste: DewpointC °F 8.2 °F 11.8 °F
Kosteus: Humidity % 59 % 80 %
Tuulen nopeus: WindSpeedKMH mph 0.0 mph 1.9 mph
Tuulenpuuska: WindSpeedGustKMH mph - -
Tuuli:- - SW
Ilmanpaine: PressurehPa in 999.5 in -
Sade: 6.9 in    
Historical Graphs
 
 
Taulukkotiedot Heinäkuu 17, 2017
Aika Lämpötila Kastepiste Ilmanpaine Tuuli Tuulen nopeus Tuulenpuuska Kosteus Sademäärä (tunneittain)
TemperatureC °F DewpointC °F PressurehPa in Calm     Humidity % HourlyPrecipMM in
00:00 16.3 °F 8.2 °F 1007.7 in Calm   4.8 mph 59 % 0.0 in
00:15 16.3 °F 8.3 °F 1007.7 in Calm   3.2 mph 59 % 0.0 in
00:30 16.2 °F 8.7 °F 1007.7 in Calm     61 % 0.0 in
00:45 15.8 °F 9.5 °F 1007.3 in Calm     66 % 0.0 in
01:00 15.6 °F 9.0 °F 1007.0 in Calm     65 % 0.0 in
01:15 15.7 °F 8.6 °F 1007.0 in Calm   6.4 mph 63 % 0.0 in
01:30 16.0 °F 8.7 °F 1006.7 in South 1.6 mph 9.7 mph 62 % 0.0 in
01:45 16.1 °F 9.5 °F 1006.7 in South 1.6 mph 8.0 mph 65 % 0.0 in
02:00 16.0 °F 9.6 °F 1006.3 in SSW 3.2 mph 9.7 mph 66 % 0.0 in
02:15 15.9 °F 9.6 °F 1006.0 in SSW 1.6 mph 12.9 mph 66 % 0.0 in
02:30 15.9 °F 9.8 °F 1006.0 in SSW 1.6 mph 8.0 mph 67 % 0.0 in
02:45 15.8 °F 9.7 °F 1005.6 in South 1.6 mph 11.3 mph 67 % 0.0 in
03:00 15.8 °F 9.9 °F 1005.6 in SSE 1.6 mph 11.3 mph 68 % 0.0 in
03:15 15.6 °F 9.9 °F 1005.6 in South 3.2 mph 16.1 mph 69 % 0.0 in
03:30 15.3 °F 10.3 °F 1005.3 in South 4.8 mph 14.5 mph 72 % 0.0 in
03:45 15.1 °F 10.7 °F 1005.0 in Calm   8.0 mph 75 % 0.0 in
04:00 14.7 °F 10.5 °F 1005.0 in SSE 3.2 mph 12.9 mph 76 % 0.0 in
04:15 14.5 °F 10.5 °F 1004.6 in Calm   8.0 mph 77 % 0.0 in
04:30 14.4 °F 10.7 °F 1004.6 in Calm   8.0 mph 78 % 0.0 in
04:45 14.3 °F 10.5 °F 1004.6 in South 1.6 mph 9.7 mph 78 % 0.0 in
05:00 14.3 °F 10.7 °F 1004.6 in SSE 1.6 mph 11.3 mph 79 % 0.0 in
05:15 14.3 °F 10.7 °F 1004.3 in SSE 1.6 mph 11.3 mph 79 % 0.0 in
05:30 14.3 °F 10.9 °F 1004.3 in Calm   8.0 mph 80 % 0.0 in
05:45 14.3 °F 10.9 °F 1003.9 in South 1.6 mph 9.7 mph 80 % 0.0 in
06:00 14.3 °F 10.9 °F 1003.9 in South 1.6 mph 9.7 mph 80 % 0.0 in
06:15 14.4 °F 11.2 °F 1003.6 in SSE 1.6 mph 12.9 mph 81 % 0.0 in
06:30 14.5 °F 11.3 °F 1003.3 in SSE 1.6 mph 6.4 mph 81 % 0.0 in
06:45 14.6 °F 11.4 °F 1003.3 in South 1.6 mph 14.5 mph 81 % 0.0 in
07:00 14.7 °F 11.5 °F 1002.9 in South 3.2 mph 11.3 mph 81 % 0.0 in
07:15 14.8 °F 11.8 °F 1002.9 in South 1.6 mph 8.0 mph 82 % 0.0 in
07:30 14.8 °F 11.7 °F 1002.9 in SE 1.6 mph 11.3 mph 82 % 0.0 in
07:45 14.7 °F 11.9 °F 1002.6 in SSE 3.2 mph 11.3 mph 83 % 0.0 in
08:00 14.7 °F 12.0 °F 1002.6 in SSE 1.6 mph 11.3 mph 84 % 0.0 in
08:15 14.8 °F 12.3 °F 1002.3 in South 1.6 mph 8.0 mph 85 % 0.0 in
08:30 14.9 °F 12.4 °F 1002.3 in South 3.2 mph 11.3 mph 85 % 0.0 in
08:45 15.1 °F 12.7 °F 1001.9 in SSE 3.2 mph 16.1 mph 86 % 0.0 in
09:00 15.1 °F 12.7 °F 1001.9 in SSE 3.2 mph 11.3 mph 86 % 0.0 in
09:15 15.2 °F 13.0 °F 1001.6 in South 3.2 mph 17.7 mph 87 % 0.0 in
09:30 15.1 °F 13.1 °F 1001.6 in South 4.8 mph 14.5 mph 88 % 0.0 in
09:45 15.2 °F 13.2 °F 1001.2 in SSW 4.8 mph 14.5 mph 88 % 0.0 in
10:00 15.2 °F 13.2 °F 1001.2 in South 3.2 mph 12.9 mph 88 % 0.0 in
10:15 15.3 °F 13.5 °F 1001.2 in SSW 1.6 mph 9.7 mph 89 % 0.0 in
10:30 15.3 °F 13.5 °F 1000.9 in SSE 1.6 mph 11.3 mph 89 % 0.3 in
10:45 15.3 °F 13.5 °F 1000.9 in SSE 1.6 mph 9.7 mph 89 % 0.3 in
11:00 15.2 °F 13.9 °F 1000.9 in Calm   6.4 mph 92 % 0.3 in
11:15 15.2 °F 13.9 °F 1000.9 in Calm   8.0 mph 92 % 0.5 in
11:30 15.2 °F 14.0 °F 1000.6 in Calm   6.4 mph 93 % 0.5 in
11:45 15.1 °F 14.2 °F 1000.6 in Calm   1.6 mph 94 % 0.5 in
12:00 15.1 °F 14.2 °F 1000.6 in Calm   8.0 mph 94 % 1.5 in
12:15 15.2 °F 14.4 °F 1000.2 in Calm   8.0 mph 95 % 2.0 in
12:30 15.4 °F 14.6 °F 1000.2 in Calm   3.2 mph 95 % 2.3 in
12:45 15.7 °F 14.9 °F 999.9 in Calm   4.8 mph 95 % 2.3 in
13:00 15.6 °F 14.8 °F 999.9 in Calm   6.4 mph 95 % 1.5 in
13:15 15.4 °F 14.5 °F 999.5 in SSW 1.6 mph 9.7 mph 94 % 2.5 in
13:30 15.5 °F 14.7 °F 999.9 in SSW 3.2 mph 14.5 mph 95 % 2.3 in
13:45 15.8 °F 15.0 °F 999.5 in Calm   6.4 mph 95 % 2.3 in
14:00 15.9 °F 15.0 °F 999.5 in SW 1.6 mph 8.0 mph 94 % 2.3 in
14:15 16.1 °F 15.1 °F 999.5 in West 3.2 mph 9.7 mph 94 % 0.3 in
14:30 16.2 °F 14.9 °F 999.9 in West 1.6 mph 8.0 mph 92 % 0.0 in
14:45 15.9 °F 14.8 °F 999.9 in Calm   6.4 mph 93 % 0.3 in
15:00 15.6 °F 14.5 °F 999.9 in WNW 3.2 mph 9.7 mph 93 % 0.3 in
15:15 15.6 °F 14.6 °F 999.9 in Calm   6.4 mph 94 % 0.8 in
15:30 15.6 °F 14.6 °F 999.5 in South 1.6 mph 8.0 mph 94 % 1.3 in
15:45 16.1 °F 15.1 °F 999.9 in WNW 1.6 mph 9.7 mph 94 % 1.0 in
16:00 16.6 °F 15.3 °F 999.9 in WSW 1.6 mph 9.7 mph 92 % 0.8 in
16:15 17.2 °F 15.0 °F 999.5 in West 1.6 mph 9.7 mph 87 % 0.3 in
16:30 17.8 °F 14.3 °F 999.5 in WSW 4.8 mph 16.1 mph 80 % 0.0 in
16:45 18.0 °F 14.1 °F 999.9 in West 3.2 mph 11.3 mph 78 % 0.0 in
17:00 17.3 °F 13.2 °F 999.9 in WNW 6.4 mph 16.1 mph 77 % 0.0 in
17:15 17.3 °F 13.7 °F 999.9 in WSW 1.6 mph 9.7 mph 79 % 0.0 in
17:30 17.6 °F 13.1 °F 999.9 in West 4.8 mph 12.9 mph 75 % 0.0 in
17:45 17.3 °F 13.0 °F 999.9 in West 1.6 mph 11.3 mph 76 % 0.0 in
18:00 17.7 °F 12.6 °F 999.9 in WNW 4.8 mph 14.5 mph 72 % 0.0 in
18:15 17.7 °F 12.1 °F 1000.2 in WNW 4.8 mph 19.3 mph 70 % 0.0 in
18:30 16.9 °F 11.4 °F 1000.2 in WNW 4.8 mph 16.1 mph 70 % 0.0 in
18:45 16.5 °F 11.8 °F 1000.2 in WNW 1.6 mph 9.7 mph 74 % 0.0 in
19:00 16.9 °F 12.0 °F 1000.2 in NW 4.8 mph 17.7 mph 73 % 0.0 in
19:15 16.6 °F 11.5 °F 1000.6 in WNW 4.8 mph 17.7 mph 72 % 0.0 in
19:30 17.1 °F 11.8 °F 1000.6 in West 3.2 mph 20.9 mph 71 % 0.0 in
19:45 17.3 °F 11.5 °F 1000.6 in West 3.2 mph 14.5 mph 69 % 0.0 in
20:00 16.8 °F 11.1 °F 1000.9 in West 4.8 mph 16.1 mph 69 % 0.0 in
20:15 16.7 °F 11.2 °F 1000.9 in West 1.6 mph 9.7 mph 70 % 0.0 in
20:30 16.1 °F 10.6 °F 1001.2 in WSW 4.8 mph 16.1 mph 70 % 0.3 in
20:45 15.6 °F 10.7 °F 1001.2 in SW 4.8 mph 16.1 mph 73 % 0.3 in
21:00 15.1 °F 10.7 °F 1001.2 in SW 1.6 mph 11.3 mph 75 % 0.3 in
21:15 14.8 °F 10.6 °F 1001.2 in WSW 1.6 mph 11.3 mph 76 % 0.3 in
21:30 14.6 °F 10.6 °F 1001.2 in SSW 1.6 mph 9.7 mph 77 % 0.0 in
21:45 14.4 °F 10.6 °F 1001.2 in SW 1.6 mph 11.3 mph 78 % 0.0 in
22:00 14.1 °F 10.5 °F 1001.6 in SW 1.6 mph 8.0 mph 79 % 0.0 in
22:15 13.7 °F 10.3 °F 1001.6 in Calm   6.4 mph 80 % 0.0 in
22:30 13.3 °F 10.3 °F 1001.6 in Calm   1.6 mph 82 % 0.0 in
22:45 12.9 °F 10.1 °F 1001.6 in Calm   9.7 mph 83 % 0.0 in
23:00 12.8 °F 10.3 °F 1001.6 in Calm   3.2 mph 85 % 0.0 in
23:15 12.5 °F 10.1 °F 1001.6 in Calm   3.2 mph 85 % 0.0 in
23:30 12.2 °F 9.9 °F 1001.6 in Calm   3.2 mph 86 % 0.0 in
23:45 11.9 °F 9.8 °F 1001.6 in SW 1.6 mph 8.0 mph 87 % 0.0 in
Esan sääasema
Terveisin Weather Underground - 2.75 mb

Alkuperäinen skripti  Jim McMurry - jmcmurry@mwt.net Sovitettu myös templatelle  Wim van der Kuil - Leuven-Template.eu

Laitteet joita käytämme:

Sääasema
Davis VP2

Sääasemaohjelma
Cumulus

Sääaseman tietokone
Asus EeePC

Palveluntarjoaja
Suncomet

Davis VP2

Cumulus

Asus EeePC

Suncomet